Sunflower Gold — JD2460 — position and weather

sailwx.info

Track history (hours):
 
Tides and Currents Weather Stations Pressure Air Temp Water Temp Dewpoint Dewpoint Depression Visibility Wind Speed Wind Dir Waves Ship Positions

Sunflower Gold

Last reported at 2014-Nov-27 20:34 UTC. Time now 2014-Nov-27 20:43 UTC.
Position N 34°35' E 135°04'.

Length 166 m; draft 5.8 m.

Type: Passenger vessel. MMSI: 431000331.

Date/timePositionNaut miles runAvg speedWind from/ knotsBaromVisibWave heightAir tempDewpointWater temp
2014-Nov-27 20:34N 34°35' E 135°04'11 0.3
2014-Nov-26 11:30N 34°34' E 134°50'1819.5
2014-Nov-26 10:33N 34°36' E 135°12'7 6.1
2014-Nov-26 09:28N 34°42' E 135°17'0 0.0
2014-Nov-26 08:31N 34°42' E 135°17'0 0.0
2014-Nov-26 07:31N 34°42' E 135°17'0 0.0
2014-Nov-26 06:31N 34°42' E 135°17'0 0.0
2014-Nov-26 05:31N 34°42' E 135°17'0 0.0
2014-Nov-26 04:31N 34°42' E 135°17'0 0.0
2014-Nov-26 03:25N 34°42' E 135°17'0 0.0
2014-Nov-26 02:25N 34°42' E 135°17'0 0.0
2014-Nov-26 01:31N 34°42' E 135°17'0 0.0
2014-Nov-26 00:31N 34°42' E 135°17'0 0.0
2014-Nov-25 23:31N 34°42' E 135°17'0 0.0
2014-Nov-25 22:31N 34°42' E 135°17'0 0.0
2014-Nov-25 21:33N 34°42' E 135°17'1312.9
2014-Nov-25 20:33N 34°35' E 135°03'2119.2
2014-Nov-25 19:26N 34°29' E 134°39'9 0.3
2014-Nov-24 11:31N 34°34' E 134°47'2021.3
2014-Nov-24 10:34N 34°36' E 135°12'7 5.2
2014-Nov-24 09:12N 34°42' E 135°17'0 0.0
2014-Nov-24 08:30N 34°42' E 135°17'0 0.0
2014-Nov-24 07:30N 34°42' E 135°17'0 0.0
2014-Nov-24 06:30N 34°42' E 135°17'0 0.0
2014-Nov-24 05:24N 34°42' E 135°17'0 0.0
2014-Nov-24 04:30N 34°42' E 135°17'0 0.0
2014-Nov-24 03:30N 34°42' E 135°17'0 0.0
2014-Nov-24 02:30N 34°42' E 135°17'0 0.0
2014-Nov-24 01:30N 34°42' E 135°17'0 0.0
2014-Nov-24 00:30N 34°42' E 135°17'0 0.0
2014-Nov-23 23:30N 34°42' E 135°17'0 0.0
2014-Nov-23 22:18N 34°42' E 135°17'0 0.0
2014-Nov-23 21:33N 34°42' E 135°17'10 9.9
2014-Nov-23 20:33N 34°35' E 135°08'1918.7
2014-Nov-23 19:33N 34°32' E 134°46'4 0.1
2014-Nov-22 12:16N 34°34' E 134°49'1521.4
2014-Nov-22 11:33N 34°36' E 135°08'10 9.0
2014-Nov-22 10:29N 34°42' E 135°17'0 0.0
2014-Nov-22 09:17N 34°42' E 135°17'0 0.0
2014-Nov-22 08:29N 34°42' E 135°17'0 0.0
2014-Nov-22 07:29N 34°42' E 135°17'0 0.0
2014-Nov-22 06:29N 34°42' E 135°17'0 0.0
2014-Nov-22 05:23N 34°42' E 135°17'0 0.0
2014-Nov-22 04:17N 34°42' E 135°17'0 0.0
2014-Nov-22 03:29N 34°42' E 135°17'0 0.0
2014-Nov-22 02:29N 34°42' E 135°17'0 0.0
2014-Nov-22 01:29N 34°42' E 135°17'0 0.0
2014-Nov-22 00:26N 34°42' E 135°17'0 0.0
2014-Nov-21 23:32N 34°42' E 135°17'2 1.9
2014-Nov-21 22:33N 34°40' E 135°18'1514.9
2014-Nov-21 21:33N 34°37' E 135°01'9 0.3
2014-Nov-20 11:31N 34°35' E 134°50'1920.1
2014-Nov-20 10:33N 34°37' E 135°13'6 5.8
2014-Nov-20 09:28N 34°42' E 135°17'0 0.0
2014-Nov-20 08:22N 34°42' E 135°17'0 0.0
2014-Nov-20 07:28N 34°42' E 135°17'0 0.0
2014-Nov-20 06:28N 34°42' E 135°17'0 0.0
2014-Nov-20 05:28N 34°42' E 135°17'0 0.0
2014-Nov-20 04:28N 34°42' E 135°17'0 0.0
2014-Nov-20 03:16N 34°42' E 135°17'0 0.0
2014-Nov-20 02:16N 34°42' E 135°17'0 0.0
2014-Nov-20 01:16N 34°42' E 135°17'0 0.0
2014-Nov-20 00:28N 34°42' E 135°17'0 0.0
2014-Nov-19 23:28N 34°42' E 135°17'0 0.0
2014-Nov-19 22:22N 34°42' E 135°17'0 0.0
2014-Nov-19 21:33N 34°42' E 135°17'1313.1
2014-Nov-19 20:33N 34°36' E 135°03'10 0.3
2014-Nov-18 11:29N 34°35' E 134°51'1920.2
2014-Nov-18 10:33N 34°37' E 135°14'6 4.8
2014-Nov-18 09:24N 34°42' E 135°17'0 0.0
2014-Nov-18 08:30N 34°42' E 135°17'0 0.0
2014-Nov-18 07:30N 34°42' E 135°17'0 0.0
2014-Nov-18 06:30N 34°42' E 135°17'0 0.0
2014-Nov-18 05:18N 34°42' E 135°17'0 0.0
2014-Nov-18 04:24N 34°42' E 135°17'0 0.0
2014-Nov-18 03:24N 34°42' E 135°17'0 0.0
2014-Nov-18 02:24N 34°42' E 135°17'0 0.0
2014-Nov-18 01:18N 34°42' E 135°17'0 0.0
2014-Nov-18 00:24N 34°42' E 135°17'0 0.0
2014-Nov-17 23:30N 34°42' E 135°17'0 0.0
2014-Nov-17 22:12N 34°42' E 135°17'0 0.0
2014-Nov-17 21:33N 34°42' E 135°17'  
Track history (hours):
 
Tides and Currents Weather Stations Pressure Air Temp Water Temp Dewpoint Dewpoint Depression Visibility Wind Speed Wind Dir Waves Ship Positions

Sunflower Gold

Last reported at 2014-Nov-27 20:34 UTC. Time now 2014-Nov-27 20:43 UTC.
Position N 34°35' E 135°04'.

Length 166 m; draft 5.8 m.

Type: Passenger vessel. MMSI: 431000331.

Date/timePositionNaut miles runAvg speedWind from/ knotsBaromVisibWave heightAir tempDewpointWater temp
2014-Nov-27 20:34N 34°35' E 135°04'11 0.3
2014-Nov-26 11:30N 34°34' E 134°50'1819.5
2014-Nov-26 10:33N 34°36' E 135°12'7 6.1
2014-Nov-26 09:28N 34°42' E 135°17'0 0.0
2014-Nov-26 08:31N 34°42' E 135°17'0 0.0
2014-Nov-26 07:31N 34°42' E 135°17'0 0.0
2014-Nov-26 06:31N 34°42' E 135°17'0 0.0
2014-Nov-26 05:31N 34°42' E 135°17'0 0.0
2014-Nov-26 04:31N 34°42' E 135°17'0 0.0
2014-Nov-26 03:25N 34°42' E 135°17'0 0.0
2014-Nov-26 02:25N 34°42' E 135°17'0 0.0
2014-Nov-26 01:31N 34°42' E 135°17'0 0.0
2014-Nov-26 00:31N 34°42' E 135°17'0 0.0
2014-Nov-25 23:31N 34°42' E 135°17'0 0.0
2014-Nov-25 22:31N 34°42' E 135°17'0 0.0
2014-Nov-25 21:33N 34°42' E 135°17'1312.9
2014-Nov-25 20:33N 34°35' E 135°03'2119.2
2014-Nov-25 19:26N 34°29' E 134°39'9 0.3
2014-Nov-24 11:31N 34°34' E 134°47'2021.3
2014-Nov-24 10:34N 34°36' E 135°12'7 5.2
2014-Nov-24 09:12N 34°42' E 135°17'0 0.0
2014-Nov-24 08:30N 34°42' E 135°17'0 0.0
2014-Nov-24 07:30N 34°42' E 135°17'0 0.0
2014-Nov-24 06:30N 34°42' E 135°17'0 0.0
2014-Nov-24 05:24N 34°42' E 135°17'0 0.0
2014-Nov-24 04:30N 34°42' E 135°17'0 0.0
2014-Nov-24 03:30N 34°42' E 135°17'0 0.0
2014-Nov-24 02:30N 34°42' E 135°17'0 0.0
2014-Nov-24 01:30N 34°42' E 135°17'0 0.0
2014-Nov-24 00:30N 34°42' E 135°17'0 0.0
2014-Nov-23 23:30N 34°42' E 135°17'0 0.0
2014-Nov-23 22:18N 34°42' E 135°17'0 0.0
2014-Nov-23 21:33N 34°42' E 135°17'10 9.9
2014-Nov-23 20:33N 34°35' E 135°08'1918.7
2014-Nov-23 19:33N 34°32' E 134°46'4 0.1
2014-Nov-22 12:16N 34°34' E 134°49'1521.4
2014-Nov-22 11:33N 34°36' E 135°08'10 9.0
2014-Nov-22 10:29N 34°42' E 135°17'0 0.0
2014-Nov-22 09:17N 34°42' E 135°17'0 0.0
2014-Nov-22 08:29N 34°42' E 135°17'0 0.0
2014-Nov-22 07:29N 34°42' E 135°17'0 0.0
2014-Nov-22 06:29N 34°42' E 135°17'0 0.0
2014-Nov-22 05:23N 34°42' E 135°17'0 0.0
2014-Nov-22 04:17N 34°42' E 135°17'0 0.0
2014-Nov-22 03:29N 34°42' E 135°17'0 0.0
2014-Nov-22 02:29N 34°42' E 135°17'0 0.0
2014-Nov-22 01:29N 34°42' E 135°17'0 0.0
2014-Nov-22 00:26N 34°42' E 135°17'0 0.0
2014-Nov-21 23:32N 34°42' E 135°17'2 1.9
2014-Nov-21 22:33N 34°40' E 135°18'1514.9
2014-Nov-21 21:33N 34°37' E 135°01'9 0.3
2014-Nov-20 11:31N 34°35' E 134°50'1920.1
2014-Nov-20 10:33N 34°37' E 135°13'6 5.8
2014-Nov-20 09:28N 34°42' E 135°17'0 0.0
2014-Nov-20 08:22N 34°42' E 135°17'0 0.0
2014-Nov-20 07:28N 34°42' E 135°17'0 0.0
2014-Nov-20 06:28N 34°42' E 135°17'0 0.0
2014-Nov-20 05:28N 34°42' E 135°17'0 0.0
2014-Nov-20 04:28N 34°42' E 135°17'0 0.0
2014-Nov-20 03:16N 34°42' E 135°17'0 0.0
2014-Nov-20 02:16N 34°42' E 135°17'0 0.0
2014-Nov-20 01:16N 34°42' E 135°17'0 0.0
2014-Nov-20 00:28N 34°42' E 135°17'0 0.0
2014-Nov-19 23:28N 34°42' E 135°17'0 0.0
2014-Nov-19 22:22N 34°42' E 135°17'0 0.0
2014-Nov-19 21:33N 34°42' E 135°17'1313.1
2014-Nov-19 20:33N 34°36' E 135°03'10 0.3
2014-Nov-18 11:29N 34°35' E 134°51'1920.2
2014-Nov-18 10:33N 34°37' E 135°14'6 4.8
2014-Nov-18 09:24N 34°42' E 135°17'0 0.0
2014-Nov-18 08:30N 34°42' E 135°17'0 0.0
2014-Nov-18 07:30N 34°42' E 135°17'0 0.0
2014-Nov-18 06:30N 34°42' E 135°17'0 0.0
2014-Nov-18 05:18N 34°42' E 135°17'0 0.0
2014-Nov-18 04:24N 34°42' E 135°17'0 0.0
2014-Nov-18 03:24N 34°42' E 135°17'0 0.0
2014-Nov-18 02:24N 34°42' E 135°17'0 0.0
2014-Nov-18 01:18N 34°42' E 135°17'0 0.0
2014-Nov-18 00:24N 34°42' E 135°17'0 0.0
2014-Nov-17 23:30N 34°42' E 135°17'0 0.0
2014-Nov-17 22:12N 34°42' E 135°17'0 0.0
2014-Nov-17 21:33N 34°42' E 135°17'  

Dump ship's entire track history